Pagrindinis puslapis
METAR-TAF:

METAR-TAF

Oro uostai :

Džakarta, Java, Indonezija

platuma: 06-07S, ilguma: 106-39E, Aukštis: 8 m

Dabartinis oras

Ataskaita buvo paskelbta 36 minutes, ne 17:00 UTC
Vėjas 4 kt iš Vakarų
Temperatūra 27°C
Drėgmė 84%
Slėgis 1009 hPa
Matomumas: 5000 m
Su prošvaistėmis ne aukštis 2000 ft
migla

METAR: WIII 301700Z 28004KT 5000 HZ BKN020 27/24 Q1009 NOSIG

Laikas: 00:36 (17:36 UTC)

Prognozė

Ataskaita buvo paskelbta 6 valandos ir 36 minutes, ne 11:00 UTC
Prognozė galioja nuo 30 metu 12 UTC su 01 metu 18 UTC
Vėjas 9 kt iš Rytų/Šiaurės Rytų
Matomumas: 7000 m
Mažai debesys ne aukštis 2000 ft
Tapsmas
nuo 30 metu 13 UTC su 30 metu 15 UTC
Vėjas 4 kt iš Pietų
Tapsmas
nuo 01 metu 02 UTC su 01 metu 04 UTC
Vėjas 10 kt iš Šiaurės Rytų

TAF: WIII 301100Z 3012/0118 07009KT 7000 FEW020 BECMG 3013/3015 17004KT BECMG 0102/0104 05010KT

Orai ataskaitas ir orų prognozės (METAR, TAF).

turimą stotys yra geltonos ir raudonos taškus žemėlapyje.

Perkelti pele per norėdami pamatyti stoties vardą.

Tada spustelėkite, norėdami matyti oro stebėjimo ir prognozės.

Norėdami pakeisti žemėlapį: spustelėkite ant žalios mygtukų su juodo kryžiaus žemyn,; žalią mygtuką su brūkšneliu, jei norite nutolinti; arba žalių rodyklių gretimoms žemėlapius.


METAR-TAF: